Time;durP1;ratioP1;P1;durP2;ratioP2;P2;SDS_P1;SDS_P2;PMS_P1;PMS_P2;Temp;Humidity;BMP_temperature;BMP_pressure;BME280_temperature;BME280_humidity;BME280_pressure;Samples;Min_cycle;Max_cycle;Signal;HPM_P1;HPM_P2
2021/12/03 00:00:46;;;;;;;9.40;2.80;;;;;;;-0.70;72.12;98084.56;8456539;28;20469;-80
2021/12/03 00:04:47;;;;;;;9.88;2.38;;;;;;;-0.73;72.04;98090.38;8437546;28;20040;-79
2021/12/03 00:08:47;;;;;;;7.88;2.60;;;;;;;-0.75;72.07;98097.81;8454267;28;20075;-81
2021/12/03 00:12:49;;;;;;;10.52;2.63;;;;;;;-0.72;71.71;98107.88;8457130;28;20050;-82
2021/12/03 00:16:50;;;;;;;10.57;2.80;;;;;;;-0.75;72.06;98105.78;8457100;28;20051;-80
2021/12/03 00:20:51;;;;;;;10.20;2.70;;;;;;;-0.72;72.12;98118.50;8456074;28;20056;-80
2021/12/03 00:24:52;;;;;;;13.10;3.13;;;;;;;-0.66;72.23;98132.56;8456585;28;20052;-79
2021/12/03 00:28:53;;;;;;;12.20;3.03;;;;;;;-0.63;72.45;98127.53;8436878;28;20491;-80
2021/12/03 00:32:54;;;;;;;10.95;2.90;;;;;;;-0.62;72.55;98139.75;8423683;28;20048;-80
2021/12/03 00:36:55;;;;;;;7.10;2.65;;;;;;;-0.54;72.02;98157.81;8457323;28;20055;-80
2021/12/03 00:40:56;;;;;;;6.65;2.55;;;;;;;-0.50;71.93;98169.50;8457243;28;20094;-79
2021/12/03 00:44:57;;;;;;;14.18;2.60;;;;;;;-0.40;71.73;98178.53;8449229;28;20052;-82
2021/12/03 00:48:58;;;;;;;12.05;2.95;;;;;;;-0.46;72.03;98186.47;8453676;28;20050;-81
2021/12/03 00:52:59;;;;;;;10.93;2.85;;;;;;;-0.42;71.42;98187.53;8456279;28;20476;-79
2021/12/03 00:57:00;;;;;;;10.50;2.65;;;;;;;-0.50;71.94;98185.41;8436005;28;20503;-80
2021/12/03 01:01:03;;;;;;;7.93;3.10;;;;;;;-0.49;72.08;98197.63;8433841;28;20093;-82
2021/12/03 01:05:05;;;;;;;8.48;3.08;;;;;;;-0.51;72.51;98199.72;8433605;28;20052;-79
2021/12/03 01:09:05;;;;;;;8.68;2.80;;;;;;;-0.47;72.52;98206.09;8416292;28;20131;-80
2021/12/03 01:13:06;;;;;;;8.73;2.95;;;;;;;-0.59;72.83;98218.78;8400119;28;20044;-80
2021/12/03 01:17:07;;;;;;;12.00;3.35;;;;;;;-0.58;73.01;98209.75;8421424;28;20097;-81
2021/12/03 01:21:09;;;;;;;15.63;3.30;;;;;;;-0.63;73.09;98217.69;8432761;28;20047;-80
2021/12/03 01:25:11;;;;;;;8.63;2.83;;;;;;;-0.73;73.84;98222.94;8413698;28;20486;-81
2021/12/03 01:29:12;;;;;;;12.18;3.45;;;;;;;-0.88;74.06;98226.31;8409294;28;20048;-80
2021/12/03 01:33:13;;;;;;;10.10;3.08;;;;;;;-1.02;74.46;98222.50;8433099;28;20169;-82
2021/12/03 01:37:14;;;;;;;16.27;4.28;;;;;;;-1.16;74.97;98225.88;8432958;28;20170;-82
2021/12/03 01:41:15;;;;;;;8.05;3.00;;;;;;;-1.28;75.50;98236.63;8422442;28;20115;-79
2021/12/03 01:45:20;;;;;;;12.15;3.08;;;;;;;-1.36;76.14;98253.78;8406469;28;20041;-79
2021/12/03 01:49:23;;;;;;;14.90;3.97;;;;;;;-1.43;76.65;98255.81;8432849;28;20055;-80
2021/12/03 01:53:26;;;;;;;9.45;3.50;;;;;;;-1.48;76.66;98261.06;8414749;28;20545;-80
2021/12/03 01:57:27;;;;;;;15.93;3.70;;;;;;;-1.55;77.10;98263.16;8414989;28;20052;-79
2021/12/03 02:01:28;;;;;;;18.80;3.40;;;;;;;-1.59;77.18;98267.34;8415106;28;20067;-79
2021/12/03 02:05:29;;;;;;;18.13;3.10;;;;;;;-1.60;77.86;98273.69;8428493;28;20044;-79
2021/12/03 02:09:30;;;;;;;11.68;3.13;;;;;;;-1.70;78.10;98270.94;8431291;28;20044;-80
2021/12/03 02:13:31;;;;;;;15.23;3.40;;;;;;;-1.75;78.35;98284.13;8395875;28;20056;-79
2021/12/03 02:17:31;;;;;;;13.50;4.10;;;;;;;-1.80;78.45;98297.31;8410109;28;20090;-80
2021/12/03 02:21:32;;;;;;;12.18;3.25;;;;;;;-1.82;78.69;98299.41;8418739;28;20386;-79
2021/12/03 02:25:33;;;;;;;12.52;3.25;;;;;;;-1.74;78.72;98306.88;8430394;28;20465;-79
2021/12/03 02:29:34;;;;;;;9.77;3.30;;;;;;;-1.73;79.20;98313.78;8431096;28;20032;-80
2021/12/03 02:33:36;;;;;;;10.32;3.28;;;;;;;-1.74;79.42;98306.88;8415398;28;20053;-81
2021/12/03 02:37:37;;;;;;;11.57;3.22;;;;;;;-1.82;79.68;98304.69;8410645;28;20052;-82
2021/12/03 02:41:38;;;;;;;11.68;3.28;;;;;;;-1.89;80.17;98314.66;8367539;28;20139;-80
2021/12/03 02:45:38;;;;;;;9.38;3.10;;;;;;;-1.88;80.34;98308.31;8364176;28;20052;-82
2021/12/03 02:49:41;;;;;;;9.82;2.55;;;;;;;-1.94;80.69;98312.75;8344242;28;20075;-81
2021/12/03 02:53:41;;;;;;;7.78;2.60;;;;;;;-1.97;81.15;98317.75;8364364;28;20049;-82
2021/12/03 02:57:43;;;;;;;16.05;3.13;;;;;;;-2.02;81.34;98320.34;8340849;28;20143;-81
2021/12/03 03:01:44;;;;;;;7.72;2.55;;;;;;;-2.01;81.36;98337.81;8346709;28;20056;-79
2021/12/03 03:05:57;;;;;;;8.18;2.30;;;;;;;-2.01;81.47;98337.81;8358076;28;20158;-81
2021/12/03 03:09:57;;;;;;;12.65;2.45;;;;;;;-2.04;81.62;98359.47;8376068;28;20048;-83
2021/12/03 03:13:58;;;;;;;9.00;3.38;;;;;;;-2.07;82.22;98359.97;8406480;28;20040;-81
2021/12/03 03:18:14;;;;;;;11.18;3.03;;;;;;;-2.11;82.10;98370.22;8400673;28;20036;-80
2021/12/03 03:22:16;;;;;;;10.48;3.15;;;;;;;-2.18;82.19;98365.13;8425423;28;20051;-80
2021/12/03 03:26:17;;;;;;;8.55;2.42;;;;;;;-2.11;82.69;98380.03;8428164;28;20051;-82
2021/12/03 03:30:19;;;;;;;12.88;2.83;;;;;;;-2.06;82.02;98372.16;8416201;28;20131;-80
2021/12/03 03:34:19;;;;;;;9.60;2.97;;;;;;;-2.13;82.34;98373.13;8425891;28;20384;-82
2021/12/03 03:38:20;;;;;;;8.05;2.97;;;;;;;-2.22;82.35;98385.16;8428705;28;20055;-80
2021/12/03 03:42:21;;;;;;;10.82;2.40;;;;;;;-2.24;82.47;98370.59;8428942;28;20048;-82
2021/12/03 03:46:22;;;;;;;10.48;2.70;;;;;;;-2.31;82.80;98373.41;8429029;28;20048;-81
2021/12/03 03:50:23;;;;;;;9.68;2.85;;;;;;;-2.44;82.93;98384.31;8410673;28;20622;-81
2021/12/03 03:54:25;;;;;;;8.77;2.53;;;;;;;-2.48;82.72;98380.53;8427524;28;20052;-81
2021/12/03 03:58:26;;;;;;;9.57;2.90;;;;;;;-2.53;82.96;98377.81;8428164;28;20052;-80
2021/12/03 04:02:27;;;;;;;7.70;2.75;;;;;;;-2.49;83.18;98372.88;8427412;28;20071;-80
2021/12/03 04:06:27;;;;;;;11.05;3.00;;;;;;;-2.53;83.22;98385.75;8426606;28;20492;-81
2021/12/03 04:10:28;;;;;;;9.63;2.63;;;;;;;-2.56;83.20;98383.59;8428883;28;20040;-80
2021/12/03 04:14:29;;;;;;;9.40;2.88;;;;;;;-2.61;83.47;98376.41;8428578;28;20134;-79
2021/12/03 04:18:30;;;;;;;10.45;2.92;;;;;;;-2.62;83.71;98389.84;8386513;28;20048;-81
2021/12/03 04:22:33;;;;;;;13.20;2.78;;;;;;;-2.63;83.81;98388.25;8426035;28;20082;-80
2021/12/03 04:26:34;;;;;;;11.63;3.42;;;;;;;-2.66;84.34;98391.38;8392302;28;20512;-81
2021/12/03 04:30:36;;;;;;;14.88;3.15;;;;;;;-2.72;84.13;98405.56;8429513;28;20075;-80
2021/12/03 04:34:37;;;;;;;9.73;3.28;;;;;;;-2.76;84.26;98409.72;8433951;28;20051;-81
2021/12/03 04:38:37;;;;;;;9.27;2.80;;;;;;;-2.82;84.55;98405.41;8434634;28;20492;-80
2021/12/03 04:42:38;;;;;;;9.82;2.58;;;;;;;-2.80;85.19;98403.31;8434272;28;20744;-82
2021/12/03 04:46:39;;;;;;;14.57;3.00;;;;;;;-2.84;85.40;98407.47;8433127;28;20044;-81
2021/12/03 04:50:41;;;;;;;7.38;2.55;;;;;;;-2.84;85.17;98412.75;8434536;28;20036;-84
2021/12/03 04:54:42;;;;;;;9.32;3.28;;;;;;;-2.84;85.55;98408.28;8434083;28;20067;-82
2021/12/03 04:58:44;;;;;;;9.50;2.95;;;;;;;-2.86;85.83;98420.13;8412325;28;20370;-82
2021/12/03 05:02:45;;;;;;;10.48;3.17;;;;;;;-2.83;86.15;98411.72;8413744;28;20087;-84
2021/12/03 05:06:54;;;;;;;14.75;2.72;;;;;;;-2.85;85.85;98416.44;8420066;28;20059;-83
2021/12/03 05:10:56;;;;;;;8.90;2.58;;;;;;;-2.80;86.01;98424.47;8415541;28;20386;-83
2021/12/03 05:14:57;;;;;;;12.38;3.80;;;;;;;-2.82;85.91;98431.81;8430428;28;20706;-84
2021/12/03 05:18:58;;;;;;;11.07;3.17;;;;;;;-2.82;86.00;98437.09;8432425;28;20051;-83
2021/12/03 05:22:59;;;;;;;13.68;4.07;;;;;;;-2.86;86.32;98435.97;8432471;28;20048;-85
2021/12/03 05:27:00;;;;;;;12.10;2.90;;;;;;;-2.90;86.56;98435.63;8430042;28;20067;-83
2021/12/03 05:31:01;;;;;;;17.20;3.58;;;;;;;-2.84;86.65;98433.88;8412711;28;20073;-83
2021/12/03 05:35:03;;;;;;;12.10;3.38;;;;;;;-2.85;86.60;98424.34;8432137;28;20500;-82
2021/12/03 05:39:04;;;;;;;15.52;3.95;;;;;;;-2.83;86.63;98440.78;8430852;28;20047;-83
2021/12/03 05:43:05;;;;;;;21.65;5.28;;;;;;;-2.85;86.65;98453.41;8413531;28;20043;-83
2021/12/03 05:47:06;;;;;;;33.72;7.45;;;;;;;-2.91;87.00;98449.09;8394283;28;20571;-83
2021/12/03 05:51:07;;;;;;;33.88;8.00;;;;;;;-2.95;87.44;98458.53;8327594;28;20130;-83
2021/12/03 05:55:09;;;;;;;30.60;7.57;;;;;;;-2.97;87.25;98476.47;8327339;28;20045;-79
2021/12/03 05:59:09;;;;;;;29.35;7.35;;;;;;;-2.99;87.65;98480.16;8328017;28;20080;-83
2021/12/03 06:03:11;;;;;;;25.73;5.88;;;;;;;-3.01;87.47;98482.22;8327805;28;20065;-82
2021/12/03 06:07:12;;;;;;;26.88;6.07;;;;;;;-3.03;87.69;98492.22;8327468;28;20136;-81
2021/12/03 06:11:13;;;;;;;21.08;5.70;;;;;;;-3.08;87.79;98491.34;8327349;28;20045;-83
2021/12/03 06:15:15;;;;;;;24.80;5.05;;;;;;;-3.09;88.03;98506.38;8278044;28;20069;-82
2021/12/03 06:19:16;;;;;;;18.25;5.53;;;;;;;-2.98;87.61;98512.66;8375855;28;20109;-81
2021/12/03 06:23:17;;;;;;;19.85;4.43;;;;;;;-3.00;87.88;98512.06;8429742;28;20052;-82
2021/12/03 06:27:18;;;;;;;18.00;4.90;;;;;;;-3.05;87.62;98518.06;8430499;28;20189;-82
2021/12/03 06:31:19;;;;;;;17.00;4.35;;;;;;;-3.02;87.66;98517.63;8430099;28;20044;-80
2021/12/03 06:35:20;;;;;;;16.73;4.97;;;;;;;-3.00;87.38;98518.16;8428783;28;20489;-83
2021/12/03 06:39:20;;;;;;;17.83;5.90;;;;;;;-2.90;87.01;98524.66;8410718;28;20136;-81
2021/12/03 06:43:21;;;;;;;15.63;4.47;;;;;;;-2.90;86.84;98536.03;8429423;28;20048;-83
2021/12/03 06:47:22;;;;;;;15.15;4.35;;;;;;;-2.87;86.56;98538.22;8429947;28;20071;-81
2021/12/03 06:51:23;;;;;;;20.55;5.40;;;;;;;-2.76;85.54;98541.88;8429929;28;20374;-83
2021/12/03 06:55:24;;;;;;;12.18;4.55;;;;;;;-2.69;85.27;98547.78;8427385;28;20485;-84
2021/12/03 06:59:25;;;;;;;23.27;5.20;;;;;;;-2.69;84.85;98558.34;8429355;28;20101;-82
2021/12/03 07:03:27;;;;;;;22.17;5.15;;;;;;;-2.73;84.95;98562.53;8428883;28;20051;-81
2021/12/03 07:07:28;;;;;;;15.70;4.93;;;;;;;-2.71;84.68;98563.09;8428339;28;20052;-82
2021/12/03 07:11:28;;;;;;;17.13;4.93;;;;;;;-2.70;85.09;98570.81;8429192;28;20101;-84
2021/12/03 07:15:29;;;;;;;13.98;4.05;;;;;;;-2.66;84.82;98573.75;8429525;28;20412;-82
2021/12/03 07:19:30;;;;;;;13.77;5.60;;;;;;;-2.61;84.82;98571.22;8428729;28;20064;-83
2021/12/03 07:23:31;;;;;;;17.45;4.80;;;;;;;-2.47;84.35;98567.22;8428652;28;20093;-81
2021/12/03 07:27:32;;;;;;;14.23;5.35;;;;;;;-2.39;84.39;98585.38;8429374;28;20048;-84
2021/12/03 07:31:33;;;;;;;12.20;5.65;;;;;;;-2.27;84.26;98583.44;8427494;28;20048;-83
2021/12/03 07:35:33;;;;;;;14.13;5.70;;;;;;;-2.18;83.88;98579.38;8429051;28;20482;-83
2021/12/03 07:39:34;;;;;;;17.67;6.45;;;;;;;-2.03;83.76;98583.31;8428380;28;20050;-85
2021/12/03 07:43:35;;;;;;;11.32;4.65;;;;;;;-1.94;82.85;98576.56;8427354;28;20044;-89
2021/12/03 07:47:37;;;;;;;18.80;6.72;;;;;;;-1.90;82.95;98593.56;8428603;28;20040;-85
2021/12/03 07:51:37;;;;;;;13.45;5.78;;;;;;;-1.83;82.89;98588.94;8428255;28;20055;-87
2021/12/03 07:55:38;;;;;;;27.67;7.45;;;;;;;-1.80;83.26;98594.53;8427967;28;20052;-82
2021/12/03 07:59:39;;;;;;;23.38;6.90;;;;;;;-1.63;82.61;98602.47;8409466;28;20059;-82
2021/12/03 08:03:40;;;;;;;17.65;6.90;;;;;;;-1.58;82.35;98591.97;8428116;28;20048;-83
2021/12/03 08:07:45;;;;;;;16.90;6.40;;;;;;;-1.36;80.60;98600.75;8434539;28;20134;-86
2021/12/03 08:11:46;;;;;;;24.40;7.28;;;;;;;-1.39;81.17;98601.25;8434860;28;20059;-80
2021/12/03 08:15:47;;;;;;;16.63;6.50;;;;;;;-1.33;80.44;98597.63;8433813;28;20385;-81
2021/12/03 08:19:48;;;;;;;14.43;5.95;;;;;;;-1.31;80.53;98603.47;8435010;28;20127;-84
2021/12/03 08:23:49;;;;;;;19.33;5.88;;;;;;;-1.15;79.90;98585.13;8435739;28;20131;-84
2021/12/03 08:27:49;;;;;;;15.07;5.28;;;;;;;-1.04;79.05;98597.47;8435369;28;20063;-88
2021/12/03 08:31:50;;;;;;;14.32;5.30;;;;;;;-0.93;78.13;98599.19;8433844;28;20048;-82
2021/12/03 08:35:51;;;;;;;11.07;3.92;;;;;;;-0.73;76.28;98604.72;8435072;28;20048;-83
2021/12/03 08:39:52;;;;;;;17.80;4.47;;;;;;;-0.55;75.28;98601.78;8435355;28;20051;-83
2021/12/03 08:43:53;;;;;;;14.65;4.35;;;;;;;-0.42;74.02;98617.28;8435395;28;20055;-81
2021/12/03 08:47:58;;;;;;;17.17;4.40;;;;;;;-0.38;74.30;98603.53;8433999;28;20044;-81
2021/12/03 08:56:03;;;;;;;14.52;3.60;;;;;;;-0.11;72.38;98622.91;8433495;28;20060;-83
2021/12/03 09:00:17;;;;;;;21.25;4.72;;;;;;;-0.06;72.52;98620.31;8434261;28;20496;-83
2021/12/03 09:04:17;;;;;;;11.43;4.15;;;;;;;0.04;72.15;98615.09;8432353;28;20445;-85
2021/12/03 09:08:18;;;;;;;16.05;3.88;;;;;;;0.18;71.39;98626.88;8433949;28;20563;-84
2021/12/03 09:12:19;;;;;;;14.73;3.10;;;;;;;0.31;70.68;98626.47;8433713;28;20131;-86
2021/12/03 09:16:21;;;;;;;11.02;3.78;;;;;;;0.38;70.55;98632.34;8431123;28;20064;-85
2021/12/03 09:24:53;;;;;;;12.50;4.40;;;;;;;0.57;69.76;98634.63;8316618;28;20045;-81
2021/12/03 09:29:05;;;;;;;17.52;4.13;;;;;;;0.77;68.84;98629.44;8312660;28;20091;-89
2021/12/03 09:33:09;;;;;;;11.43;4.15;;;;;;;0.96;69.12;98633.25;8231310;28;20518;-81
2021/12/03 09:37:10;;;;;;;14.40;4.40;;;;;;;1.02;67.66;98642.88;8231415;28;20061;-83
2021/12/03 09:41:14;;;;;;;8.82;2.30;;;;;;;1.22;65.43;98627.00;8231778;28;20504;-82
2021/12/03 09:45:15;;;;;;;13.25;3.67;;;;;;;1.30;65.54;98622.25;8183349;28;20130;-83
2021/12/03 09:53:41;;;;;;;12.10;3.75;;;;;;;1.34;64.47;98618.00;8230900;28;20059;-80
2021/12/03 09:57:49;;;;;;;23.27;4.32;;;;;;;1.46;64.40;98610.63;8230816;28;20082;-84
2021/12/03 10:15:32;;;;;;;12.30;3.38;;;;;;;1.83;62.07;98611.25;8398314;28;20063;-84
2021/12/03 10:19:57;;;;;;;9.48;3.05;;;;;;;2.02;60.77;98604.34;8396600;28;20045;-81
2021/12/03 10:38:09;;;;;;;7.15;2.75;;;;;;;2.32;59.12;98613.41;8261782;28;20057;-89
2021/12/03 10:42:36;;;;;;;7.85;2.92;;;;;;;2.26;59.77;98617.16;8248463;28;20451;-83
2021/12/03 11:04:48;;;;;;;9.93;3.22;;;;;;;2.43;60.42;98620.34;8289115;28;20454;-86
2021/12/03 12:23:49;;;;;;;11.63;3.30;;;;;;;3.18;56.74;98615.91;8266130;28;20048;-82
2021/12/03 13:20:40;;;;;;;9.45;2.65;;;;;;;4.93;48.26;98651.63;8329042;28;20049;-81
2021/12/03 14:04:58;;;;;;;7.18;2.67;;;;;;;3.33;48.68;98685.28;8430450;28;20048;-84
2021/12/03 14:55:29;;;;;;;5.38;2.53;;;;;;;1.44;51.54;98719.16;8428226;28;20185;-83
2021/12/03 14:59:33;;;;;;;8.98;2.85;;;;;;;1.28;52.09;98710.31;8429579;28;20051;-83
2021/12/03 15:07:41;;;;;;;10.93;2.78;;;;;;;1.11;52.00;98726.41;8428035;28;20047;-82
2021/12/03 16:10:28;;;;;;;19.27;5.40;;;;;;;0.43;52.61;98741.31;8426768;28;20044;-85
2021/12/03 16:23:31;;;;;;;14.13;4.38;;;;;;;-0.05;54.88;98738.69;8428036;28;20538;-82
2021/12/03 16:53:23;;;;;;;24.83;6.60;;;;;;;-0.23;58.38;98746.97;8433317;28;20457;-82
2021/12/03 16:57:30;;;;;;;23.57;7.07;;;;;;;-0.18;58.48;98739.09;8432262;28;20177;-82
2021/12/03 17:06:48;;;;;;;19.25;7.20;;;;;;;-0.31;58.51;98739.44;8418961;28;20055;-80
2021/12/03 17:22:54;;;;;;;21.58;6.40;;;;;;;-0.29;58.59;98753.28;8395179;28;20064;-81
2021/12/03 17:48:01;;;;;;;31.17;9.02;;;;;;;-0.41;59.98;98750.72;8379412;28;20052;-85
2021/12/03 17:56:25;;;;;;;33.88;10.02;;;;;;;-0.52;60.97;98755.09;8411839;28;20233;-83
2021/12/03 18:13:45;;;;;;;33.80;10.13;;;;;;;-0.51;62.16;98764.66;8294344;28;20054;-81
2021/12/03 18:52:22;;;;;;;27.70;8.30;;;;;;;-0.72;66.87;98743.41;8431026;28;20413;-81
2021/12/03 18:56:41;;;;;;;26.00;8.23;;;;;;;-0.70;66.94;98725.44;8429438;28;20052;-82
2021/12/03 19:00:44;;;;;;;17.70;7.47;;;;;;;-0.69;67.41;98733.16;8428283;28;20048;-81
2021/12/03 19:05:06;;;;;;;21.73;7.50;;;;;;;-0.64;67.03;98735.88;8429064;28;20040;-80
2021/12/03 19:09:16;;;;;;;19.15;6.95;;;;;;;-0.46;66.51;98732.91;8425883;28;20106;-81
2021/12/03 19:13:27;;;;;;;14.40;6.72;;;;;;;-0.45;66.38;98739.81;8395811;28;20191;-82
2021/12/03 19:17:35;;;;;;;20.55;7.43;;;;;;;-0.33;66.18;98730.94;8427089;28;20048;-81
2021/12/03 19:21:39;;;;;;;19.13;7.15;;;;;;;-0.33;66.46;98736.25;8428695;28;20101;-82
2021/12/03 19:25:40;;;;;;;22.30;7.18;;;;;;;-0.39;66.79;98731.94;8427201;28;20094;-83
2021/12/03 19:29:43;;;;;;;18.42;7.32;;;;;;;-0.42;66.59;98734.00;8400256;28;20105;-87
2021/12/03 19:33:46;;;;;;;21.88;8.05;;;;;;;-0.43;67.04;98727.13;8429736;28;20044;-83
2021/12/03 19:37:50;;;;;;;25.23;7.88;;;;;;;-0.40;66.97;98719.69;8427537;28;20059;-81
2021/12/03 19:46:05;;;;;;;16.58;6.97;;;;;;;-0.35;67.19;98733.03;8427414;28;20048;-86
2021/12/03 19:54:27;;;;;;;16.75;6.88;;;;;;;-0.47;67.28;98709.28;8428272;28;20080;-83
2021/12/03 19:58:29;;;;;;;17.20;6.65;;;;;;;-0.51;67.69;98703.66;8428394;28;20063;-82
2021/12/03 20:02:30;;;;;;;15.35;6.70;;;;;;;-0.50;67.96;98699.97;8434643;28;20086;-84
2021/12/03 20:06:31;;;;;;;13.52;6.80;;;;;;;-0.60;68.00;98691.88;8434479;28;20089;-83
2021/12/03 20:10:39;;;;;;;17.00;7.47;;;;;;;-0.64;68.32;98688.13;8434467;28;20044;-81
2021/12/03 20:14:43;;;;;;;16.65;7.25;;;;;;;-0.73;68.47;98684.28;8434270;28;20089;-81
2021/12/03 20:18:49;;;;;;;21.25;7.53;;;;;;;-0.82;69.31;98680.47;8435175;28;20068;-83
2021/12/03 20:31:27;;;;;;;38.90;12.45;;;;;;;-1.00;70.86;98651.56;8331009;28;20046;-82
2021/12/03 20:39:54;;;;;;;32.03;10.93;;;;;;;-1.09;71.04;98637.16;8311398;28;20055;-81
2021/12/03 20:44:21;;;;;;;27.15;10.05;;;;;;;-1.07;71.34;98635.06;8287418;28;20072;-81
2021/12/03 21:09:57;;;;;;;31.70;10.80;;;;;;;-1.13;71.80;98636.03;8264380;28;20058;-81
2021/12/03 21:14:02;;;;;;;31.38;11.40;;;;;;;-1.17;71.85;98616.38;8231740;28;20065;-80
2021/12/03 21:18:28;;;;;;;45.10;15.43;;;;;;;-1.22;72.54;98611.03;8264605;28;20050;-80
2021/12/03 21:22:34;;;;;;;39.60;14.57;;;;;;;-1.27;72.88;98603.00;8263417;28;20423;-80
2021/12/03 21:26:38;;;;;;;31.63;12.63;;;;;;;-1.20;72.48;98593.00;8247194;28;20058;-80
2021/12/03 21:30:49;;;;;;;32.30;12.88;;;;;;;-1.24;72.62;98586.59;8277521;28;20817;-80
2021/12/03 21:39:21;;;;;;;56.08;18.67;;;;;;;-1.31;72.73;98595.53;8321044;28;20044;-81
2021/12/03 21:43:22;;;;;;;70.50;22.85;;;;;;;-1.45;73.55;98581.03;8431254;28;20044;-80
2021/12/03 21:47:44;;;;;;;46.15;17.27;;;;;;;-1.52;74.13;98580.41;8453860;28;20500;-80
2021/12/03 21:51:45;;;;;;;48.53;17.45;;;;;;;-1.51;74.10;98586.50;8413430;28;20089;-83
2021/12/03 21:55:48;;;;;;;48.63;16.70;;;;;;;-1.48;74.16;98586.81;8428154;28;20529;-80
2021/12/03 21:59:49;;;;;;;51.47;16.85;;;;;;;-1.49;74.37;98574.63;8442224;28;20182;-81
2021/12/03 22:03:50;;;;;;;46.38;17.48;;;;;;;-1.40;74.53;98562.56;8442266;28;20067;-80
2021/12/03 22:07:53;;;;;;;45.58;16.52;;;;;;;-1.38;74.59;98571.09;8428193;28;20072;-80
2021/12/03 22:11:54;;;;;;;47.75;18.15;;;;;;;-1.31;74.58;98571.69;8447309;28;20072;-80
2021/12/03 22:15:58;;;;;;;47.63;15.80;;;;;;;-1.24;74.51;98565.41;8459418;28;20078;-80
2021/12/03 22:19:59;;;;;;;39.63;14.70;;;;;;;-1.14;73.81;98560.25;8434981;28;20129;-80
2021/12/03 22:23:59;;;;;;;23.70;10.85;;;;;;;-1.03;73.75;98554.03;8413647;28;20072;-82
2021/12/03 22:28:05;;;;;;;26.05;10.68;;;;;;;-0.87;73.44;98534.59;8421544;28;20044;-81
2021/12/03 22:32:06;;;;;;;22.52;9.35;;;;;;;-0.78;73.37;98527.78;8426838;28;20092;-83
2021/12/03 22:36:08;;;;;;;23.48;8.75;;;;;;;-0.63;72.79;98520.00;8412234;28;20052;-85
2021/12/03 22:40:09;;;;;;;14.38;7.78;;;;;;;-0.52;72.18;98511.09;8375234;28;20044;-82
2021/12/03 22:44:11;;;;;;;19.63;7.70;;;;;;;-0.50;71.83;98514.28;8430858;28;20052;-81
2021/12/03 22:48:33;;;;;;;16.88;7.45;;;;;;;-0.40;71.24;98510.13;8431136;28;20056;-83
2021/12/03 22:52:32;;;;;;;16.42;7.65;;;;;;;-0.27;70.70;98496.47;8430240;28;20044;-85
2021/12/03 22:56:33;;;;;;;15.32;6.95;;;;;;;-0.30;70.30;98504.91;8428541;28;20159;-81
2021/12/03 23:00:46;;;;;;;17.65;7.68;;;;;;;-0.31;70.81;98495.34;8430377;28;20060;-81
2021/12/03 23:04:47;;;;;;;16.02;5.72;;;;;;;-0.28;70.36;98494.84;8430108;28;20113;-82
2021/12/03 23:08:48;;;;;;;17.13;7.53;;;;;;;-0.16;69.84;98498.13;8429843;28;20048;-80
2021/12/03 23:12:49;;;;;;;16.30;7.18;;;;;;;-0.11;69.57;98492.88;8430243;28;20052;-80
2021/12/03 23:16:52;;;;;;;16.30;7.10;;;;;;;-0.08;69.62;98484.38;8429641;28;20051;-80
2021/12/03 23:20:53;;;;;;;14.77;7.18;;;;;;;-0.02;69.28;98483.38;8428860;28;20047;-84
2021/12/03 23:24:57;;;;;;;17.20;6.85;;;;;;;0.03;68.79;98469.31;8428275;28;20036;-81
2021/12/03 23:28:58;;;;;;;17.95;7.50;;;;;;;0.09;68.69;98458.50;8428789;28;20075;-82
2021/12/03 23:33:00;;;;;;;18.17;7.85;;;;;;;0.06;68.81;98445.72;8429951;28;20085;-86
2021/12/03 23:37:03;;;;;;;20.75;7.93;;;;;;;0.07;68.80;98443.84;8428899;28;20044;-80
2021/12/03 23:41:04;;;;;;;16.85;7.95;;;;;;;0.05;69.05;98435.38;8429803;28;20051;-85
2021/12/03 23:45:05;;;;;;;20.05;7.18;;;;;;;0.16;68.67;98416.56;8427063;28;20063;-82
2021/12/03 23:49:06;;;;;;;16.13;6.22;;;;;;;0.19;67.93;98416.06;8427753;28;20040;-82
2021/12/03 23:53:07;;;;;;;14.93;7.47;;;;;;;0.21;68.25;98400.66;8430182;28;20158;-85
2021/12/03 23:57:10;;;;;;;17.92;7.45;;;;;;;0.25;68.18;98399.09;8428453;28;20052;-81
